Gerlach, NV

8:32 PM PDT on August 22, 2014 (GMT -0700)
RAWS JUNIPER SPRINGS NV US | Change Station
CLOSE
Current Station
Personal Weather Station
Location: Eagleville, CA
Elevation: 5536 ft
Nearby Weather Stations

Elev 5536 ft 41.08 °N, 119.78 °W | Updated 52 minutes ago

Clear
Clear
69 °F
Feels Like 69 °F
N
15
Wind Variable Wind from NW
Gusts 25.0 mph

Today
High -- | Low -- °F
--% Chance of Precip.
Yesterday
High -- | Low -- °F
Precip. -- in
6:14 AM 7:47 PM
Waning Crescent, 5% visible
Pressure 29.89 in
Visibility 10.0 miles
Clouds Clear
Dew Point 16 °F
Humidity 13%
Rainfall 0.00 in
Snow Depth Not available.
UV 0 out of 12
Pollen 7.90 out of 12
Air Quality Not available.
Flu Activity Not available.
METAR KAAT 230255Z AUTO 32009KT 10SM CLR 22/M03 A2999 RMK AO2 SLP122 T02171033 53006

More Conditions Fewer Conditions

Pressure 29.89 in
Visibility 10.0 miles
Clouds Clear
Dew Point 16 °F
Humidity 13%
Rainfall 0.00 in
Snow Depth Not available.
UV 0 out of 12
Pollen 7.90 out of 12
Air Quality Not available.
Flu Activity Not available.
METAR KAAT 230255Z AUTO 32009KT 10SM CLR 22/M03 A2999 RMK AO2 SLP122 T02171033 53006

More Conditions Fewer Conditions

10-Day Weather Forecast

Almanac

Astronomy

Aug. 22, 2014 Rise Set
Actual Time 6:14 AM PDT 7:47 PM PDT
Civil Twilight 5:45 AM PDT 8:16 PM PDT
Nautical Twilight 5:10 AM PDT 8:51 PM PDT
Astronomical Twilight 4:33 AM PDT 9:28 PM PDT
Moon 3:41 AM PDT (8/22) 5:59 PM PDT (8/22)
Length of Visible Light 14h 30m
Length of Day
13h 32m
Tomorrow will be 2m 33s shorter.
Waning Crescent, 5% of the Moon is Illuminated
Today
Waning Crescent
Aug 25
New
Sep 2
First Quarter
Sep 8
Full
Sep 15
Last Quarter

Today's Extremes

State Highs State Lows

Community

WunderPhotos

Upload Photos

1,746,352 photos uploaded!

WunderBlogs® & News

Nearby

Snow Depth

Station Depth Elevation
Sheldon 0 in 5860 ft
Disaster Peak 0 in 6500 ft
Lamance Creek 1 in 6000 ft
Granite Peak 1 in 7800 ft
Buckskin Lower 3 in 6700 ft

Earthquake Activity

City Distance Mag. Time & Date
No recent earthquake activity has been reported nearby.
Minimum magnitude displayed is 2.5.

Coastal Water Temperatures

Place Temperature
No Stations Reporting

Nearby Weather Stations